• Join FlightAware (Why Join?)
  • Login
  • US Flag 
08:54AM EDT


 

Airport Tracker/Info


-or-


 

Live Flight TrackerFlight Track Log ✈ SWA157 ✈ 21-Apr-2013 ✈ KMDW - KLAX

Flight Track Log - Related Links

Times and Time Zones

All times are in EDT time to prevent confusion due to time zone crossing. See the SWA157 flight status page for this flight to view local times or setup timezone preferences in your user account.

Time Position Orientation Groundspeed Altitude Reporting Facility
EDT Latitude Longitude Course Direction KTS MPH feet Rate Location/Type
10:03AM 41.7333 -87.7333 283° West 193 222 3,300  Level Chicago TRACON
10:04AM 41.7000 -87.7833 228° Southwest 239 275 4,000 420 Climbing Chicago TRACON
10:04AM 41.7167 -87.8500 289° West 236 272 4,100  Climbing Chicago TRACON
10:05AM 41.7500 -87.9333 298° West 266 306 4,100 300 Level Chicago TRACON
10:06AM 41.7508 -87.9742 272° West 251 289 4,500 2,520 Climbing Chicago Center
10:07AM 41.7575 -88.0692 275° West 266 306 7,500 2,940 Climbing Chicago Center
10:08AM 41.9231 -88.6050 283° West  Level FlightAware Approximate
10:08AM 41.7792 -88.1550 289° West 266 306 10,600  Level Chicago Center
10:09AM 41.7961 -88.2503 283° West 285 328 12,700 2,340 Climbing Chicago Center
10:10AM 41.7903 -88.3531 266° West 280 322 15,500 2,580 Climbing Chicago Center
10:11AM 41.7694 -88.4572 255° West 291 335 18,100 2,340 Climbing Chicago Center
10:12AM 41.7456 -88.5842 256° West 296 341 20,400 1,980 Climbing Chicago Center
10:13AM 41.7242 -88.6939 255° West 301 346 22,300 1,740 Climbing Chicago Center
10:14AM 41.7083 -88.8094 260° West 317 365 24,000 1,620 Climbing Chicago Center
10:15AM 41.7111 -88.9333 272° West 333 383 25,700 1,740 Climbing Chicago Center
10:16AM 41.7136 -89.0581 272° West 336 387 27,600 1,740 Climbing Chicago Center
10:17AM 41.7178 -89.1803 273° West 333 383 29,300 1,260 Climbing Chicago Center
10:18AM 41.7236 -89.3297 273° West 338 389 30,200 720 Climbing Chicago Center
10:19AM 41.7083 -89.4614 261° West 362 417 30,800 540 Climbing Chicago Center
10:20AM 41.6908 -89.6042 261° West 378 435 31,400 480 Climbing Chicago Center
10:21AM 41.6708 -89.7494 260° West 396 456 31,800 480 Climbing Chicago Center
10:22AM 41.6506 -89.9011 260° West 412 474 32,500 960 Climbing Chicago Center
10:23AM 41.6297 -90.0550 260° West 420 483 33,800 720 Climbing Chicago Center
10:24AM 41.6097 -90.2047 260° West 413 475 34,000 60 Climbing Chicago Center
10:25AM 41.5869 -90.3597 259° West 427 491 34,000  Level Chicago Center
10:26AM 41.5617 -90.5372 259° West 411 473 34,000  Level Chicago Center
10:27AM 41.5431 -90.6706 259° West 410 472 34,000  Level Chicago Center
10:28AM 41.5192 -90.8344 259° West 409 471 34,000  Level Chicago Center
10:29AM 41.4975 -90.9819 259° West 407 468 34,000  Level Chicago Center
10:30AM 41.4764 -91.1281 259° West 404 465 34,000  Level Chicago Center
10:31AM 41.4536 -91.2761 258° West 406 467 34,000 480 Level Chicago Center
10:32AM 41.4308 -91.4342 259° West 402 463 35,000 480 Climbing Chicago Center
10:33AM 41.4083 -91.5781 258° West 400 460 35,000 240 Level Chicago Center
10:35AM 41.3867 -91.7222 259° West 400 460 35,600 480 Climbing Chicago Center
10:36AM 41.3639 -91.8650 258° West 396 456 36,000 180 Climbing Chicago Center
10:37AM 41.3372 -92.0411 259° West 404 465 36,000  Level Chicago Center
10:38AM 41.3136 -92.1867 258° West 406 467 36,000  Level Chicago Center
10:39AM 41.2903 -92.3339 258° West 408 470 36,000  Level Chicago Center
10:40AM 41.2639 -92.4956 258° West 408 470 36,000  Level Chicago Center
10:41AM 41.2403 -92.6408 258° West 407 468 36,000  Level Chicago Center
10:41AM 41.2214 -92.7608 258° West 411 473 36,000  Level Minneapolis Center
10:42AM 41.1969 -92.9061 257° West 410 472 36,000  Level Minneapolis Center
10:43AM 41.1736 -93.0522 258° West 410 472 36,000  Level Minneapolis Center
10:44AM 41.1492 -93.1956 257° West 406 467 36,000  Level Minneapolis Center
10:46AM 41.1247 -93.3392 257° West 403 464 36,000  Level Minneapolis Center
10:47AM 41.1022 -93.4825 258° West 403 464 36,000  Level Minneapolis Center
10:48AM 41.0764 -93.6278 257° West 406 467 36,000  Level Minneapolis Center
10:49AM 41.0472 -93.7989 257° West 402 463 36,000  Level Minneapolis Center
10:50AM 41.0225 -93.9428 257° West 403 464 36,000  Level Minneapolis Center
10:51AM 40.9953 -94.0900 256° West 408 470 36,000  Level Minneapolis Center
10:52AM 40.9681 -94.2353 256° West 411 473 36,000  Level Minneapolis Center
10:53AM 40.9414 -94.3803 256° West 410 472 36,000  Level Minneapolis Center
10:54AM 40.9178 -94.5217 258° West 405 466 36,000  Level Minneapolis Center
10:55AM 40.8922 -94.6711 257° West 407 468 36,000  Level Minneapolis Center
10:56AM 40.8531 -94.8756 256° West 410 472 36,000  Level Minneapolis Center
10:57AM 40.8269 -95.0222 257° West 411 473 36,000  Level Minneapolis Center
10:58AM 40.7994 -95.1675 256° West 407 468 36,000  Level Minneapolis Center
10:59AM 40.7722 -95.3133 256° West 409 471 36,000  Level Minneapolis Center
11:00AM 40.7447 -95.4611 256° West 411 473 36,000  Level Minneapolis Center
11:01AM 40.7169 -95.6092 256° West 414 476 36,000  Level Minneapolis Center
11:02AM 40.6886 -95.7561 256° West 413 475 36,000  Level Minneapolis Center
11:03AM 40.6603 -95.9053 256° West 416 479 36,000  Level Minneapolis Center
11:04AM 40.6317 -96.0553 256° West 420 483 36,000  Level Minneapolis Center
11:05AM 40.6017 -96.2028 255° West 417 480 36,000  Level Minneapolis Center
11:06AM 40.5739 -96.3489 256° West 414 476 36,000  Level Minneapolis Center
11:07AM 40.5392 -96.5231 255° West 411 473 36,000  Level Minneapolis Center
11:08AM 40.5094 -96.6675 255° West 409 471 36,000  Level Minneapolis Center
11:09AM 40.4817 -96.8122 256° West 408 470 36,000  Level Minneapolis Center
11:10AM 40.4514 -96.9569 255° West 409 471 36,000  Level Minneapolis Center
11:11AM 40.4222 -97.1022 255° West 411 473 36,000  Level Minneapolis Center
11:12AM 40.3914 -97.2475 254° West 413 475 36,000  Level Minneapolis Center
11:13AM 40.3625 -97.3872 255° West 414 476 36,000  Level Minneapolis Center
11:14AM 40.3317 -97.5344 255° West 416 479 36,000  Level Minneapolis Center
11:15AM 40.3019 -97.6803 255° West 415 478 36,000  Level Minneapolis Center
11:16AM 40.2639 -97.8564 254° West 416 479 36,000  Level Minneapolis Center
11:17AM 40.2325 -98.0006 254° West 413 475 36,000  Level Minneapolis Center
11:18AM 40.2081 -98.1164 255° West 412 474 36,000  Level Minneapolis Center
11:19AM 40.1706 -98.2908 254° West 413 475 36,000  Level Minneapolis Center
11:20AM 40.1386 -98.4336 254° West 411 473 36,000  Level Minneapolis Center
11:22AM 40.1072 -98.5783 254° West 411 473 36,000  Level Minneapolis Center
11:23AM 40.0758 -98.7228 254° West 412 474 36,000  Level Minneapolis Center
11:24AM 40.0439 -98.8672 254° West 412 474 36,000  Level Minneapolis Center
11:24AM 40.0247 -98.9528 254° West 408 470 36,000  Level Denver Center
11:25AM 39.9928 -99.0961 254° West 409 471 36,000  Level Denver Center
11:26AM 39.9603 -99.2397 254° West 411 473 36,000  Level Denver Center
11:27AM 39.9278 -99.3817 253° West 409 471 36,000  Level Denver Center
11:28AM 39.8950 -99.5242 253° West 410 472 36,000  Level Denver Center
11:29AM 39.8556 -99.6947 253° West 410 472 36,000  Level Denver Center
11:30AM 39.8219 -99.8394 253° West 414 476 36,000  Level Denver Center
11:31AM 39.7886 -99.9828 253° West 414 476 36,000  Level Denver Center
11:32AM 39.7561 -100.1225 253° West 414 476 36,000  Level Denver Center
11:33AM 39.7183 -100.2828 253° West 415 478 36,000  Level Denver Center
11:34AM 39.6844 -100.4217 252° West 418 481 36,000  Level Denver Center
11:35AM 39.6464 -100.5839 253° West 420 483 36,000  Level Denver Center
11:37AM 39.6133 -100.7206 253° West 417 480 36,000  Level Denver Center
11:38AM 39.5733 -100.8803 252° West 416 479 36,000  Level Denver Center
11:39AM 39.5397 -101.0197 253° West 421 484 36,000  Level Denver Center
11:40AM 39.5069 -101.1572 253° West 420 483 36,000  Level Denver Center
11:41AM 39.4669 -101.3156 252° West 417 480 36,000  Level Denver Center
11:42AM 39.4333 -101.4514 252° West 415 478 36,000  Level Denver Center
11:43AM 39.3936 -101.6092 252° West 412 474 36,000  Level Denver Center
11:44AM 39.3603 -101.7428 252° West 409 471 36,000  Level Denver Center
11:45AM 39.3219 -101.8942 252° West 408 470 36,000  Level Denver Center
11:46AM 39.2889 -102.0244 252° West 401 461 36,000  Level Denver Center
11:47AM 39.2494 -102.1761 251° West 400 460 36,000  Level Denver Center
11:48AM 39.2158 -102.3067 252° West 401 461 36,000  Level Denver Center
11:49AM 39.1761 -102.4589 251° West 405 466 36,000  Level Denver Center
11:50AM 39.1425 -102.5892 252° West 403 464 36,000  Level Denver Center
11:51AM 39.1039 -102.7372 251° West 410 472 36,000  Level Denver Center
11:52AM 39.0681 -102.8694 251° West 408 470 36,000  Level Denver Center
11:53AM 39.0322 -103.0081 252° West 406 467 36,000  Level Denver Center
11:54AM 38.9903 -103.1692 252° West 403 464 36,000  Level Denver Center
11:55AM 38.9525 -103.3064 251° West 403 464 36,000  Level Denver Center
11:56AM 38.9153 -103.4444 251° West 405 466 36,000  Level Denver Center
11:57AM 38.8781 -103.5817 251° West 402 463 36,000  Level Denver Center
11:58AM 38.8411 -103.7167 251° West 404 465 36,000  Level Denver Center
11:59AM 38.7989 -103.8700 251° West 409 471 36,000  Level Denver Center
12:00PM 38.7642 -104.0008 251° West 407 468 36,000  Level Denver Center
12:01PM 38.7272 -104.1342 250° West 406 467 36,000  Level Denver Center
12:02PM 38.6828 -104.2922 250° West 401 461 36,000  Level Denver Center
12:03PM 38.6447 -104.4275 250° West 399 459 36,000  Level Denver Center
12:04PM 38.6072 -104.5597 250° West 394 453 36,000  Level Denver Center
12:05PM 38.5700 -104.6919 250° West 392 451 36,000  Level Denver Center
12:06PM 38.5333 -104.8239 250° West 389 448 36,000  Level Denver Center
12:07PM 38.4950 -104.9544 249° West 388 447 36,000  Level Denver Center
12:09PM 38.4578 -105.0836 250° West 384 442 36,000  Level Denver Center
12:10PM 38.4214 -105.2144 250° West 386 444 36,000  Level Denver Center
12:11PM 38.3772 -105.3631 249° West 383 441 36,000  Level Denver Center
12:12PM 38.3447 -105.4742 250° West 381 438 36,000  Level Denver Center
12:13PM 38.3036 -105.6161 250° West 382 440 36,000  Level Denver Center
12:14PM 38.2678 -105.7381 250° West 385 443 36,000  Level Denver Center
12:15PM 38.2261 -105.8803 250° West 384 442 36,000  Level Denver Center
12:16PM 38.1894 -106.0036 249° West 389 448 36,000  Level Denver Center
12:17PM 38.1464 -106.1478 249° West 392 451 36,000  Level Denver Center
12:18PM 38.1072 -106.2800 249° West 392 451 36,000  Level Denver Center
12:19PM 38.0658 -106.4147 249° West 391 450 36,000  Level Denver Center
12:20PM 38.0256 -106.5472 249° West 391 450 36,000  Level Denver Center
12:21PM 37.9886 -106.6708 249° West 392 451 36,000  Level Denver Center
12:22PM 37.9439 -106.8142 248° West 393 452 36,000  Level Denver Center
12:23PM 37.9067 -106.9372 249° West 391 450 36,000  Level Denver Center
12:24PM 37.8625 -107.0800 249° West 390 449 36,000  Level Denver Center
12:25PM 37.8211 -107.2128 249° West 394 453 36,000 540 Level Denver Center
12:26PM 37.7828 -107.3378 249° West 399 459 37,200 960 Climbing Denver Center
12:27PM 37.7394 -107.4761 248° West 386 444 38,000 360 Climbing Denver Center
12:28PM 37.7014 -107.5961 248° West 384 442 38,000  Level Denver Center
12:29PM 37.6569 -107.7369 248° West 387 445 38,000  Level Denver Center
12:30PM 37.6192 -107.8561 248° West 384 442 38,000  Level Denver Center
12:31PM 37.5800 -107.9769 248° West 389 448 38,000  Level Denver Center
12:32PM 37.5356 -108.1175 248° West 388 447 38,000  Level Denver Center
12:33PM 37.4969 -108.2375 248° West 386 444 38,000  Level Denver Center
12:34PM 37.4517 -108.3769 248° West 386 444 38,000  Level Denver Center
12:35PM 37.4136 -108.4939 248° West 380 437 38,000  Level Denver Center
12:36PM 37.3692 -108.6300 248° West 378 435 38,000  Level Denver Center
12:37PM 37.3297 -108.7497 248° West 384 442 38,000  Level Denver Center
12:39PM 37.2842 -108.8881 248° West 385 443 38,000  Level Denver Center
12:40PM 37.2444 -109.0078 247° West 388 447 38,000  Level Denver Center
12:41PM 37.1983 -109.1489 248° West 391 450 38,000  Level Denver Center
12:42PM 37.1586 -109.2694 248° West 391 450 38,000  Level Denver Center
12:43PM 37.1103 -109.4097 247° West 393 452 38,000  Level Denver Center
12:44PM 37.0700 -109.5311 247° West 396 456 38,000  Level Denver Center
12:45PM 37.0228 -109.6714 247° West 394 453 38,000  Level Denver Center
12:46PM 36.9819 -109.7911 247° West 391 450 38,000  Level Denver Center
12:47PM 36.9342 -109.9328 247° West 396 456 38,000  Level Denver Center
12:48PM 36.8933 -110.0525 247° West 395 455 38,000  Level Denver Center
12:49PM 36.8528 -110.1736 247° West 395 455 38,000  Level Denver Center
12:50PM 36.7989 -110.3258 246° West 398 458 38,000  Level Denver Center
12:51PM 36.7558 -110.4525 247° West 397 457 38,000  Level Denver Center
12:52PM 36.7147 -110.5761 247° West 391 450 38,000  Level Denver Center
12:53PM 36.6706 -110.7014 246° West 392 451 38,000  Level Denver Center
12:54PM 36.6250 -110.8281 246° West 397 457 38,000  Level Denver Center
12:55PM 36.5806 -110.9542 246° West 399 459 38,000  Level Denver Center
12:56PM 36.5264 -111.1075 246° West 402 463 38,000  Level Denver Center
12:57PM 36.4797 -111.2361 246° West 405 466 38,000  Level Denver Center
12:58PM 36.4342 -111.3653 246° West 408 470 38,000  Level Denver Center
12:59PM 36.3878 -111.4928 246° West 406 467 38,000  Level Denver Center
01:00PM 36.3389 -111.6211 245° Southwest 408 470 38,000  Level Denver Center
01:01PM 36.2822 -111.7739 245° Southwest 408 470 38,000  Level Denver Center
01:02PM 36.2353 -111.8994 245° Southwest 403 464 38,000  Level Denver Center
01:03PM 36.2242 -111.9250 242° Southwest 398 458 38,000  Level Los Angeles Center
01:04PM 36.1803 -112.0375 244° Southwest 397 457 38,000  Level Los Angeles Center
01:05PM 36.1244 -112.1858 245° Southwest 401 461 38,000  Level Los Angeles Center
01:06PM 36.0822 -112.2975 245° Southwest 398 458 38,000  Level Los Angeles Center
01:07PM 36.0267 -112.4461 245° Southwest 396 456 38,000  Level Los Angeles Center
01:08PM 35.9767 -112.5736 244° Southwest 409 471 38,000  Level Los Angeles Center
01:09PM 35.9353 -112.6831 245° Southwest 408 470 38,000  Level Los Angeles Center
01:10PM 35.8769 -112.8342 245° Southwest 411 473 38,000  Level Los Angeles Center
01:11PM 35.8283 -112.9603 245° Southwest 412 474 38,000  Level Los Angeles Center
01:12PM 35.7783 -113.0864 244° Southwest 414 476 38,000  Level Los Angeles Center
01:13PM 35.7297 -113.2122 245° Southwest 413 475 38,000  Level Los Angeles Center
01:14PM 35.6703 -113.3644 244° Southwest 416 479 38,000  Level Los Angeles Center
01:15PM 35.6200 -113.4894 244° Southwest 414 476 38,000  Level Los Angeles Center
01:16PM 35.5708 -113.6164 245° Southwest 415 478 38,000  Level Los Angeles Center
01:17PM 35.5206 -113.7417 244° Southwest 414 476 38,000  Level Los Angeles Center
01:18PM 35.4703 -113.8664 244° Southwest 413 475 38,000  Level Los Angeles Center
01:19PM 35.4111 -114.0131 244° Southwest 414 476 38,000  Level Los Angeles Center
01:20PM 35.3611 -114.1386 244° Southwest 411 473 38,000  Level Los Angeles Center
01:21PM 35.3100 -114.2644 244° Southwest 410 472 38,000  Level Los Angeles Center
01:22PM 35.2592 -114.3894 244° Southwest 409 471 38,000  Level Los Angeles Center
01:23PM 35.1981 -114.5406 244° Southwest 411 473 38,000  Level Los Angeles Center
01:24PM 35.1458 -114.6658 243° Southwest 413 475 38,000  Level Los Angeles Center
01:25PM 35.0939 -114.7931 244° Southwest 416 479 38,000  Level Los Angeles Center
01:26PM 35.0428 -114.9192 244° Southwest 415 478 38,000  Level Los Angeles Center
01:27PM 34.9908 -115.0453 243° Southwest 414 476 38,000  Level Los Angeles Center
01:28PM 34.9389 -115.1692 243° Southwest 410 472 38,000  Level Los Angeles Center
01:29PM 34.8800 -115.3111 243° Southwest 406 467 38,000 -120 Level Los Angeles Center
01:31PM 34.8261 -115.4400 243° Southwest 407 468 37,800 -540 Descending Los Angeles Center
01:32PM 34.7744 -115.5622 243° Southwest 407 468 36,900 -960 Descending Los Angeles Center
01:33PM 34.7244 -115.6819 243° Southwest 411 473 35,900 -960 Descending Los Angeles Center
01:34PM 34.6706 -115.8092 243° Southwest 421 484 35,000 -960 Descending Los Angeles Center
01:35PM 34.6156 -115.9372 242° Southwest 426 490 34,000 -1,020 Descending Los Angeles Center
01:36PM 34.5506 -116.0894 243° Southwest 425 489 32,900 -1,020 Descending Los Angeles Center
01:37PM 34.4956 -116.2172 242° Southwest 427 491 31,900 -1,020 Descending Los Angeles Center
01:38PM 34.4392 -116.3475 242° Southwest 434 499 30,900 -960 Descending Los Angeles Center
01:39PM 34.3822 -116.4789 242° Southwest 439 505 29,900 -1,980 Descending Los Angeles Center
01:40PM 34.3267 -116.6086 243° Southwest 435 501 26,800 -2,520 Descending Los Angeles Center
01:41PM 34.2711 -116.7364 242° Southwest 431 496 24,700 -2,160 Descending Los Angeles Center
01:42PM 34.2172 -116.8586 242° Southwest 416 479 22,400 -2,400 Descending Los Angeles Center
01:43PM 34.1547 -116.9975 241° Southwest 397 457 19,800 -2,160 Descending Los Angeles Center
01:44PM 34.1083 -117.1083 243° Southwest 380 437 18,000 -900 Descending Los Angeles Center
01:45PM 34.0611 -117.2117 241° Southwest 364 419 18,000  Level Los Angeles Center
01:46PM 34.0408 -117.3275 258° West 360 414 18,000 -960 Level Los Angeles Center
01:47PM 34.0267 -117.4683 263° West 355 409 16,100 -2,520 Descending Los Angeles Center
01:48PM 34.0264 -117.5867 270° West 353 406 12,800 -2,400 Descending Los Angeles Center
01:49PM 34.0225 -117.7011 268° West 345 397 11,200 -1,620 Descending Los Angeles Center
01:50PM 34.0167 -117.8000 266° West 281 323 9,500 -1,920 Descending Southern California TRACON
01:51PM 34.0000 -117.9000 259° West 288 331 7,400 -1,800 Descending Southern California TRACON
01:52PM 34.0000 -118.0000 270° West 275 316 6,000 -1,320 Descending Southern California TRACON
01:53PM 33.9833 -118.0833 256° West 264 304 4,800 -1,200 Descending Southern California TRACON
01:54PM 33.9833 -118.1667 270° West 252 290 3,600 -1,020 Descending Southern California TRACON
01:55PM 33.9683 -118.2447 257° West 224 258 2,700 -840 Descending Los Angeles Center
01:56PM 33.9628 -118.3047 264° West 197 227 1,800 -900 Descending Los Angeles Center
01:57PM 33.9575 -118.3561 263° West 176 203 900 -840 Descending Los Angeles Center
01:58PM 33.9528 -118.4042 263° West 158 182 100 -780 Descending Los Angeles Center
02:00PM 33.9425 -118.4081 259° West  Level Estimated
02:07PM 33.9425 -118.4081 259° West  Level Estimated